sensor_id;sensor_type;location;lat;lon;timestamp;temperature;humidity
32107;DHT22;18622;51.998;10.440;2023-07-16T03:34:47;21.80;99.90
32107;DHT22;18622;51.998;10.440;2023-07-16T03:37:15;21.80;99.90
32107;DHT22;18622;51.998;10.440;2023-07-16T03:39:42;21.70;99.90
32107;DHT22;18622;51.998;10.440;2023-07-16T03:42:10;21.70;99.90
32107;DHT22;18622;51.998;10.440;2023-07-16T03:44:38;21.80;99.90
32107;DHT22;18622;51.998;10.440;2023-07-16T03:47:06;21.80;99.90
32107;DHT22;18622;51.998;10.440;2023-07-16T03:49:34;21.80;99.90
32107;DHT22;18622;51.998;10.440;2023-07-16T03:52:01;21.90;99.90
32107;DHT22;18622;51.998;10.440;2023-07-16T03:54:29;21.90;99.90
32107;DHT22;18622;51.998;10.440;2023-07-16T03:56:57;21.90;99.90
32107;DHT22;18622;51.998;10.440;2023-07-16T03:59:25;21.90;99.90
32107;DHT22;18622;51.998;10.440;2023-07-16T04:01:53;21.90;99.90
32107;DHT22;18622;51.998;10.440;2023-07-16T04:04:20;21.90;99.90
32107;DHT22;18622;51.998;10.440;2023-07-16T04:06:48;21.90;99.90
32107;DHT22;18622;51.998;10.440;2023-07-16T04:09:16;21.90;99.90
32107;DHT22;18622;51.998;10.440;2023-07-16T04:11:44;21.80;99.80
32107;DHT22;18622;51.998;10.440;2023-07-16T04:14:12;21.80;99.80
32107;DHT22;18622;51.998;10.440;2023-07-16T04:16:40;21.80;99.50
32107;DHT22;18622;51.998;10.440;2023-07-16T04:19:09;21.70;99.90
32107;DHT22;18622;51.998;10.440;2023-07-16T04:21:37;21.70;99.90
32107;DHT22;18622;51.998;10.440;2023-07-16T04:24:06;21.70;99.90
32107;DHT22;18622;51.998;10.440;2023-07-16T04:26:33;21.60;99.90
32107;DHT22;18622;51.998;10.440;2023-07-16T04:29:01;21.50;99.90
32107;DHT22;18622;51.998;10.440;2023-07-16T04:31:29;21.20;99.90
32107;DHT22;18622;51.998;10.440;2023-07-16T04:33:57;20.80;99.90
32107;DHT22;18622;51.998;10.440;2023-07-16T04:36:25;20.50;99.90
32107;DHT22;18622;51.998;10.440;2023-07-16T04:38:53;20.20;99.90
32107;DHT22;18622;51.998;10.440;2023-07-16T04:41:21;19.90;99.90
32107;DHT22;18622;51.998;10.440;2023-07-16T04:43:49;19.70;99.90
32107;DHT22;18622;51.998;10.440;2023-07-16T04:46:17;19.50;99.90
32107;DHT22;18622;51.998;10.440;2023-07-16T04:48:44;19.40;99.90
32107;DHT22;18622;51.998;10.440;2023-07-16T04:51:12;19.20;99.90
32107;DHT22;18622;51.998;10.440;2023-07-16T04:53:40;19.20;99.90
32107;DHT22;18622;51.998;10.440;2023-07-16T04:56:12;19.20;99.90
32107;DHT22;18622;51.998;10.440;2023-07-16T04:58:40;19.30;99.90
32107;DHT22;18622;51.998;10.440;2023-07-16T05:01:09;19.40;99.90
32107;DHT22;18622;51.998;10.440;2023-07-16T05:03:36;19.50;99.90
32107;DHT22;18622;51.998;10.440;2023-07-16T05:06:04;19.50;99.90
32107;DHT22;18622;51.998;10.440;2023-07-16T05:08:32;19.60;99.90
32107;DHT22;18622;51.998;10.440;2023-07-16T05:11:01;19.70;99.90
32107;DHT22;18622;51.998;10.440;2023-07-16T05:13:29;19.80;99.90
32107;DHT22;18622;51.998;10.440;2023-07-16T05:15:57;19.90;99.90
32107;DHT22;18622;51.998;10.440;2023-07-16T05:18:25;20.00;99.90
32107;DHT22;18622;51.998;10.440;2023-07-16T05:20:53;20.10;99.90
32107;DHT22;18622;51.998;10.440;2023-07-16T05:23:21;20.30;99.90
32107;DHT22;18622;51.998;10.440;2023-07-16T05:25:50;20.50;99.90
32107;DHT22;18622;51.998;10.440;2023-07-16T05:28:18;20.60;99.90
32107;DHT22;18622;51.998;10.440;2023-07-16T05:30:46;20.60;99.90
32107;DHT22;18622;51.998;10.440;2023-07-16T05:33:14;20.70;99.90
32107;DHT22;18622;51.998;10.440;2023-07-16T05:35:42;20.70;99.90
32107;DHT22;18622;51.998;10.440;2023-07-16T05:38:10;20.70;99.90
32107;DHT22;18622;51.998;10.440;2023-07-16T05:40:38;20.70;99.90
32107;DHT22;18622;51.998;10.440;2023-07-16T05:43:06;20.70;99.90
32107;DHT22;18622;51.998;10.440;2023-07-16T05:45:34;20.70;99.90
32107;DHT22;18622;51.998;10.440;2023-07-16T05:48:02;20.80;99.90
32107;DHT22;18622;51.998;10.440;2023-07-16T05:50:30;20.90;99.90
32107;DHT22;18622;51.998;10.440;2023-07-16T05:52:57;21.00;99.90
32107;DHT22;18622;51.998;10.440;2023-07-16T05:55:25;21.00;99.90
32107;DHT22;18622;51.998;10.440;2023-07-16T05:57:53;20.90;99.90
32107;DHT22;18622;51.998;10.440;2023-07-16T06:00:21;21.00;99.90
32107;DHT22;18622;51.998;10.440;2023-07-16T06:02:49;21.10;99.90
32107;DHT22;18622;51.998;10.440;2023-07-16T06:05:17;21.20;99.90
32107;DHT22;18622;51.998;10.440;2023-07-16T06:07:44;21.50;99.90
32107;DHT22;18622;51.998;10.440;2023-07-16T06:10:12;21.60;99.90
32107;DHT22;18622;51.998;10.440;2023-07-16T06:12:40;22.00;99.90
32107;DHT22;18622;51.998;10.440;2023-07-16T06:15:08;22.30;99.90
32107;DHT22;18622;51.998;10.440;2023-07-16T06:17:36;22.50;99.90
32107;DHT22;18622;51.998;10.440;2023-07-16T06:20:06;22.60;99.90
32107;DHT22;18622;51.998;10.440;2023-07-16T06:22:34;22.70;99.90
32107;DHT22;18622;51.998;10.440;2023-07-16T06:25:02;22.70;99.90
32107;DHT22;18622;51.998;10.440;2023-07-16T06:27:31;22.80;99.30
32107;DHT22;18622;51.998;10.440;2023-07-16T06:29:59;22.80;99.60
32107;DHT22;18622;51.998;10.440;2023-07-16T06:32:26;22.80;98.20
32107;DHT22;18622;51.998;10.440;2023-07-16T06:34:54;22.80;98.40
32107;DHT22;18622;51.998;10.440;2023-07-16T06:37:22;22.90;98.70
32107;DHT22;18622;51.998;10.440;2023-07-16T06:39:50;23.00;98.40
32107;DHT22;18622;51.998;10.440;2023-07-16T06:42:18;23.00;98.30
32107;DHT22;18622;51.998;10.440;2023-07-16T06:44:46;22.90;97.90
32107;DHT22;18622;51.998;10.440;2023-07-16T06:47:13;22.90;97.70
32107;DHT22;18622;51.998;10.440;2023-07-16T06:49:42;22.90;97.20
32107;DHT22;18622;51.998;10.440;2023-07-16T06:52:23;22.80;97.20
32107;DHT22;18622;51.998;10.440;2023-07-16T06:54:57;22.70;97.30
32107;DHT22;18622;51.998;10.440;2023-07-16T06:57:25;22.80;96.50
32107;DHT22;18622;51.998;10.440;2023-07-16T06:59:53;22.80;96.80
32107;DHT22;18622;51.998;10.440;2023-07-16T07:02:21;23.00;97.00
32107;DHT22;18622;51.998;10.440;2023-07-16T07:04:48;23.20;96.60
32107;DHT22;18622;51.998;10.440;2023-07-16T07:07:16;23.30;96.60
32107;DHT22;18622;51.998;10.440;2023-07-16T07:09:48;23.50;95.70
32107;DHT22;18622;51.998;10.440;2023-07-16T07:12:16;23.60;95.00
32107;DHT22;18622;51.998;10.440;2023-07-16T07:14:44;23.60;94.80
32107;DHT22;18622;51.998;10.440;2023-07-16T07:17:12;23.50;94.30
32107;DHT22;18622;51.998;10.440;2023-07-16T07:19:40;23.50;92.40
32107;DHT22;18622;51.998;10.440;2023-07-16T07:22:08;23.60;92.40
32107;DHT22;18622;51.998;10.440;2023-07-16T07:24:36;23.60;91.60
32107;DHT22;18622;51.998;10.440;2023-07-16T07:27:04;23.70;89.90
32107;DHT22;18622;51.998;10.440;2023-07-16T07:29:32;23.70;89.00
32107;DHT22;18622;51.998;10.440;2023-07-16T07:32:00;23.70;90.10
32107;DHT22;18622;51.998;10.440;2023-07-16T07:34:27;24.00;89.40
32107;DHT22;18622;51.998;10.440;2023-07-16T07:36:55;24.10;86.60
32107;DHT22;18622;51.998;10.440;2023-07-16T07:39:23;24.10;87.40
32107;DHT22;18622;51.998;10.440;2023-07-16T07:41:51;24.00;86.10
32107;DHT22;18622;51.998;10.440;2023-07-16T07:44:18;23.90;85.60
32107;DHT22;18622;51.998;10.440;2023-07-16T07:46:46;23.70;86.50
32107;DHT22;18622;51.998;10.440;2023-07-16T07:49:14;23.60;86.70
32107;DHT22;18622;51.998;10.440;2023-07-16T07:51:42;23.60;84.80
32107;DHT22;18622;51.998;10.440;2023-07-16T07:54:10;23.60;85.10
32107;DHT22;18622;51.998;10.440;2023-07-16T07:56:37;23.60;84.30
32107;DHT22;18622;51.998;10.440;2023-07-16T07:59:05;23.70;84.40
32107;DHT22;18622;51.998;10.440;2023-07-16T08:01:33;23.80;83.20
32107;DHT22;18622;51.998;10.440;2023-07-16T08:04:02;23.80;81.60
32107;DHT22;18622;51.998;10.440;2023-07-16T08:06:31;23.80;82.90
32107;DHT22;18622;51.998;10.440;2023-07-16T08:08:58;23.90;83.30
32107;DHT22;18622;51.998;10.440;2023-07-16T08:11:26;24.00;83.00
32107;DHT22;18622;51.998;10.440;2023-07-16T08:13:54;24.10;81.40
32107;DHT22;18622;51.998;10.440;2023-07-16T08:16:22;24.20;80.60
32107;DHT22;18622;51.998;10.440;2023-07-16T08:18:50;24.20;77.90
32107;DHT22;18622;51.998;10.440;2023-07-16T08:21:17;24.30;76.50
32107;DHT22;18622;51.998;10.440;2023-07-16T08:23:47;24.40;73.90
32107;DHT22;18622;51.998;10.440;2023-07-16T08:26:14;24.50;72.40
32107;DHT22;18622;51.998;10.440;2023-07-16T08:28:42;24.60;71.90
32107;DHT22;18622;51.998;10.440;2023-07-16T08:31:11;24.60;71.20
32107;DHT22;18622;51.998;10.440;2023-07-16T08:33:41;24.60;70.20
32107;DHT22;18622;51.998;10.440;2023-07-16T08:36:09;24.60;71.00
32107;DHT22;18622;51.998;10.440;2023-07-16T08:38:37;24.80;74.00
32107;DHT22;18622;51.998;10.440;2023-07-16T08:41:05;25.00;73.60
32107;DHT22;18622;51.998;10.440;2023-07-16T08:43:33;25.10;71.70
32107;DHT22;18622;51.998;10.440;2023-07-16T08:46:01;25.20;72.20
32107;DHT22;18622;51.998;10.440;2023-07-16T08:48:29;25.30;73.10
32107;DHT22;18622;51.998;10.440;2023-07-16T08:50:59;25.50;70.30
32107;DHT22;18622;51.998;10.440;2023-07-16T08:53:28;25.70;70.80
32107;DHT22;18622;51.998;10.440;2023-07-16T08:55:56;26.00;68.60
32107;DHT22;18622;51.998;10.440;2023-07-16T08:58:25;26.20;67.30
32107;DHT22;18622;51.998;10.440;2023-07-16T09:00:52;26.30;66.20
32107;DHT22;18622;51.998;10.440;2023-07-16T09:03:20;26.30;65.80
32107;DHT22;18622;51.998;10.440;2023-07-16T09:05:48;26.40;66.40
32107;DHT22;18622;51.998;10.440;2023-07-16T09:08:16;26.60;65.00
32107;DHT22;18622;51.998;10.440;2023-07-16T09:10:44;26.70;63.50
32107;DHT22;18622;51.998;10.440;2023-07-16T09:13:12;26.80;62.20
32107;DHT22;18622;51.998;10.440;2023-07-16T09:15:39;26.90;60.70
32107;DHT22;18622;51.998;10.440;2023-07-16T09:18:09;26.90;60.80
32107;DHT22;18622;51.998;10.440;2023-07-16T09:20:40;26.90;60.00
32107;DHT22;18622;51.998;10.440;2023-07-16T09:23:08;27.10;59.10
32107;DHT22;18622;51.998;10.440;2023-07-16T09:25:36;27.10;58.40
32107;DHT22;18622;51.998;10.440;2023-07-16T09:28:05;27.20;58.50
32107;DHT22;18622;51.998;10.440;2023-07-16T09:30:33;27.30;57.80
32107;DHT22;18622;51.998;10.440;2023-07-16T09:33:22;27.40;57.30
32107;DHT22;18622;51.998;10.440;2023-07-16T09:35:52;27.60;58.50
32107;DHT22;18622;51.998;10.440;2023-07-16T09:38:19;28.00;56.50
32107;DHT22;18622;51.998;10.440;2023-07-16T09:40:48;28.20;55.70
32107;DHT22;18622;51.998;10.440;2023-07-16T09:43:15;28.40;55.20
32107;DHT22;18622;51.998;10.440;2023-07-16T09:48:13;28.90;55.00
32107;DHT22;18622;51.998;10.440;2023-07-16T09:50:46;29.10;52.70
32107;DHT22;18622;51.998;10.440;2023-07-16T09:53:13;29.40;51.60
32107;DHT22;18622;51.998;10.440;2023-07-16T09:55:42;29.70;52.10
32107;DHT22;18622;51.998;10.440;2023-07-16T09:58:12;29.90;51.30
32107;DHT22;18622;51.998;10.440;2023-07-16T10:00:41;30.20;50.20
32107;DHT22;18622;51.998;10.440;2023-07-16T10:03:09;30.40;49.40
32107;DHT22;18622;51.998;10.440;2023-07-16T10:05:38;30.50;50.80
32107;DHT22;18622;51.998;10.440;2023-07-16T10:08:15;30.80;50.00
32107;DHT22;18622;51.998;10.440;2023-07-16T10:10:43;31.10;49.30
32107;DHT22;18622;51.998;10.440;2023-07-16T10:13:12;31.50;49.20
32107;DHT22;18622;51.998;10.440;2023-07-16T10:15:57;31.80;49.40
32107;DHT22;18622;51.998;10.440;2023-07-16T10:18:32;32.20;47.60
32107;DHT22;18622;51.998;10.440;2023-07-16T10:21:03;32.50;46.60
32107;DHT22;18622;51.998;10.440;2023-07-16T10:23:39;32.60;46.40
32107;DHT22;18622;51.998;10.440;2023-07-16T10:26:09;32.20;46.50
32107;DHT22;18622;51.998;10.440;2023-07-16T10:28:37;32.20;47.60
32107;DHT22;18622;51.998;10.440;2023-07-16T10:31:16;32.20;46.40
32107;DHT22;18622;51.998;10.440;2023-07-16T10:33:37;32.30;45.50
32107;DHT22;18622;51.998;10.440;2023-07-16T10:36:05;32.60;45.80
32107;DHT22;18622;51.998;10.440;2023-07-16T10:38:40;33.00;44.00
32107;DHT22;18622;51.998;10.440;2023-07-16T10:41:11;33.50;43.30
32107;DHT22;18622;51.998;10.440;2023-07-16T10:43:40;33.80;43.00
32107;DHT22;18622;51.998;10.440;2023-07-16T10:46:09;33.70;43.40
32107;DHT22;18622;51.998;10.440;2023-07-16T10:48:37;33.70;42.70
32107;DHT22;18622;51.998;10.440;2023-07-16T10:51:04;33.70;42.20
32107;DHT22;18622;51.998;10.440;2023-07-16T10:53:32;33.80;41.20
32107;DHT22;18622;51.998;10.440;2023-07-16T10:56:00;33.80;41.00
32107;DHT22;18622;51.998;10.440;2023-07-16T10:58:28;33.30;40.40
32107;DHT22;18622;51.998;10.440;2023-07-16T11:00:56;33.20;40.60
32107;DHT22;18622;51.998;10.440;2023-07-16T11:03:24;32.70;41.00
32107;DHT22;18622;51.998;10.440;2023-07-16T11:05:52;32.50;41.50
32107;DHT22;18622;51.998;10.440;2023-07-16T11:08:22;32.80;41.30
32107;DHT22;18622;51.998;10.440;2023-07-16T11:10:57;32.90;40.90
32107;DHT22;18622;51.998;10.440;2023-07-16T11:13:31;32.90;41.30
32107;DHT22;18622;51.998;10.440;2023-07-16T11:16:09;32.90;41.20
32107;DHT22;18622;51.998;10.440;2023-07-16T11:18:37;33.10;41.10
32107;DHT22;18622;51.998;10.440;2023-07-16T11:21:05;33.10;40.40
32107;DHT22;18622;51.998;10.440;2023-07-16T11:23:36;33.10;41.50
32107;DHT22;18622;51.998;10.440;2023-07-16T11:26:04;33.30;40.30
32107;DHT22;18622;51.998;10.440;2023-07-16T11:28:39;33.70;40.30
32107;DHT22;18622;51.998;10.440;2023-07-16T11:31:14;34.20;40.30
32107;DHT22;18622;51.998;10.440;2023-07-16T11:33:45;34.70;39.40
32107;DHT22;18622;51.998;10.440;2023-07-16T11:36:13;34.90;38.00
32107;DHT22;18622;51.998;10.440;2023-07-16T11:38:41;35.00;38.40
32107;DHT22;18622;51.998;10.440;2023-07-16T11:41:10;34.70;38.20
32107;DHT22;18622;51.998;10.440;2023-07-16T11:43:37;34.10;38.00
32107;DHT22;18622;51.998;10.440;2023-07-16T11:46:14;34.00;38.40
32107;DHT22;18622;51.998;10.440;2023-07-16T11:48:38;34.30;38.10
32107;DHT22;18622;51.998;10.440;2023-07-16T11:51:05;34.60;38.60
32107;DHT22;18622;51.998;10.440;2023-07-16T11:53:33;35.10;37.50
32107;DHT22;18622;51.998;10.440;2023-07-16T11:56:01;35.50;37.80
32107;DHT22;18622;51.998;10.440;2023-07-16T11:58:29;35.90;36.80
32107;DHT22;18622;51.998;10.440;2023-07-16T12:00:57;36.00;36.60
32107;DHT22;18622;51.998;10.440;2023-07-16T12:03:24;35.50;36.70
32107;DHT22;18622;51.998;10.440;2023-07-16T12:05:52;35.10;37.10
32107;DHT22;18622;51.998;10.440;2023-07-16T12:08:20;34.80;37.20
32107;DHT22;18622;51.998;10.440;2023-07-16T12:10:48;34.50;37.90
32107;DHT22;18622;51.998;10.440;2023-07-16T12:13:16;34.70;37.50
32107;DHT22;18622;51.998;10.440;2023-07-16T12:15:44;35.10;37.00
32107;DHT22;18622;51.998;10.440;2023-07-16T12:18:11;35.80;36.70
32107;DHT22;18622;51.998;10.440;2023-07-16T12:20:39;36.00;37.20
32107;DHT22;18622;51.998;10.440;2023-07-16T12:23:07;35.80;36.30
32107;DHT22;18622;51.998;10.440;2023-07-16T12:25:35;35.20;37.20
32107;DHT22;18622;51.998;10.440;2023-07-16T12:28:03;35.30;37.50
32107;DHT22;18622;51.998;10.440;2023-07-16T12:30:31;35.80;36.20
32107;DHT22;18622;51.998;10.440;2023-07-16T12:32:58;35.70;36.80
32107;DHT22;18622;51.998;10.440;2023-07-16T12:35:26;36.10;36.60
32107;DHT22;18622;51.998;10.440;2023-07-16T12:37:54;36.10;36.40
32107;DHT22;18622;51.998;10.440;2023-07-16T12:40:29;36.40;35.10
32107;DHT22;18622;51.998;10.440;2023-07-16T12:42:53;36.40;35.40
32107;DHT22;18622;51.998;10.440;2023-07-16T12:45:21;36.40;35.20
32107;DHT22;18622;51.998;10.440;2023-07-16T12:47:49;36.20;35.00
32107;DHT22;18622;51.998;10.440;2023-07-16T12:50:16;35.90;36.00
32107;DHT22;18622;51.998;10.440;2023-07-16T12:52:44;35.80;34.80
32107;DHT22;18622;51.998;10.440;2023-07-16T12:55:12;35.20;36.90
32107;DHT22;18622;51.998;10.440;2023-07-16T12:57:40;35.60;36.90
32107;DHT22;18622;51.998;10.440;2023-07-16T13:00:08;36.20;35.30
32107;DHT22;18622;51.998;10.440;2023-07-16T13:02:36;36.50;36.60
32107;DHT22;18622;51.998;10.440;2023-07-16T13:05:04;36.80;36.50
32107;DHT22;18622;51.998;10.440;2023-07-16T13:07:32;36.40;34.60
32107;DHT22;18622;51.998;10.440;2023-07-16T13:10:01;36.00;35.50
32107;DHT22;18622;51.998;10.440;2023-07-16T13:12:29;36.10;35.70
32107;DHT22;18622;51.998;10.440;2023-07-16T13:14:56;36.30;34.70
32107;DHT22;18622;51.998;10.440;2023-07-16T13:17:27;36.20;33.70
32107;DHT22;18622;51.998;10.440;2023-07-16T13:19:54;36.10;35.20
32107;DHT22;18622;51.998;10.440;2023-07-16T13:22:22;36.10;34.70
32107;DHT22;18622;51.998;10.440;2023-07-16T13:24:50;36.10;35.00
32107;DHT22;18622;51.998;10.440;2023-07-16T13:27:22;36.40;35.90
32107;DHT22;18622;51.998;10.440;2023-07-16T13:29:50;37.10;33.80
32107;DHT22;18622;51.998;10.440;2023-07-16T13:32:18;36.80;34.80
32107;DHT22;18622;51.998;10.440;2023-07-16T13:34:46;36.60;34.00
32107;DHT22;18622;51.998;10.440;2023-07-16T13:37:13;36.70;34.10
32107;DHT22;18622;51.998;10.440;2023-07-16T13:39:41;36.70;34.40
32107;DHT22;18622;51.998;10.440;2023-07-16T13:42:09;36.90;34.80
32107;DHT22;18622;51.998;10.440;2023-07-16T13:44:37;37.10;34.10
32107;DHT22;18622;51.998;10.440;2023-07-16T13:47:05;37.30;33.90
32107;DHT22;18622;51.998;10.440;2023-07-16T13:49:33;37.30;34.00
32107;DHT22;18622;51.998;10.440;2023-07-16T13:52:01;37.10;33.50
32107;DHT22;18622;51.998;10.440;2023-07-16T13:54:29;36.70;34.80
32107;DHT22;18622;51.998;10.440;2023-07-16T13:56:58;36.20;36.20
32107;DHT22;18622;51.998;10.440;2023-07-16T13:59:25;36.70;35.40
32107;DHT22;18622;51.998;10.440;2023-07-16T14:02:00;37.20;33.00
32107;DHT22;18622;51.998;10.440;2023-07-16T14:04:28;36.60;33.80
32107;DHT22;18622;51.998;10.440;2023-07-16T14:06:56;35.90;34.90
32107;DHT22;18622;51.998;10.440;2023-07-16T14:09:24;35.30;34.60
32107;DHT22;18622;51.998;10.440;2023-07-16T14:11:52;34.40;35.90
32107;DHT22;18622;51.998;10.440;2023-07-16T14:14:21;34.20;35.90
32107;DHT22;18622;51.998;10.440;2023-07-16T14:16:50;34.60;35.50
32107;DHT22;18622;51.998;10.440;2023-07-16T14:19:18;35.10;35.30
32107;DHT22;18622;51.998;10.440;2023-07-16T14:21:45;35.60;34.50
32107;DHT22;18622;51.998;10.440;2023-07-16T14:24:13;36.00;34.70
32107;DHT22;18622;51.998;10.440;2023-07-16T14:26:41;36.30;34.10
32107;DHT22;18622;51.998;10.440;2023-07-16T14:29:09;36.00;34.30
32107;DHT22;18622;51.998;10.440;2023-07-16T14:31:38;35.40;34.40
32107;DHT22;18622;51.998;10.440;2023-07-16T14:34:06;34.60;34.60
32107;DHT22;18622;51.998;10.440;2023-07-16T14:36:33;34.20;35.50
32107;DHT22;18622;51.998;10.440;2023-07-16T14:39:01;34.30;35.40
32107;DHT22;18622;51.998;10.440;2023-07-16T14:41:30;34.60;36.20
32107;DHT22;18622;51.998;10.440;2023-07-16T14:43:58;35.00;35.20
32107;DHT22;18622;51.998;10.440;2023-07-16T14:46:26;34.90;34.90
32107;DHT22;18622;51.998;10.440;2023-07-16T14:48:54;34.50;35.00
32107;DHT22;18622;51.998;10.440;2023-07-16T14:51:24;34.00;35.30
32107;DHT22;18622;51.998;10.440;2023-07-16T14:53:52;33.90;36.00
32107;DHT22;18622;51.998;10.440;2023-07-16T14:56:20;34.30;35.80
32107;DHT22;18622;51.998;10.440;2023-07-16T14:58:47;34.70;35.20
32107;DHT22;18622;51.998;10.440;2023-07-16T15:01:15;35.10;35.60
32107;DHT22;18622;51.998;10.440;2023-07-16T15:03:43;35.40;35.30
32107;DHT22;18622;51.998;10.440;2023-07-16T15:06:11;36.10;35.50
32107;DHT22;18622;51.998;10.440;2023-07-16T15:08:38;36.80;35.10
32107;DHT22;18622;51.998;10.440;2023-07-16T15:11:06;37.40;34.60
32107;DHT22;18622;51.998;10.440;2023-07-16T15:13:33;37.60;33.50
32107;DHT22;18622;51.998;10.440;2023-07-16T15:16:01;37.50;33.40
32107;DHT22;18622;51.998;10.440;2023-07-16T15:18:30;37.40;33.90
32107;DHT22;18622;51.998;10.440;2023-07-16T15:21:01;36.50;33.80
32107;DHT22;18622;51.998;10.440;2023-07-16T15:23:30;35.70;35.10
32107;DHT22;18622;51.998;10.440;2023-07-16T15:26:03;35.10;34.40
32107;DHT22;18622;51.998;10.440;2023-07-16T15:28:33;35.00;34.10
32107;DHT22;18622;51.998;10.440;2023-07-16T15:31:03;35.50;34.20
32107;DHT22;18622;51.998;10.440;2023-07-16T15:33:30;36.30;34.40
32107;DHT22;18622;51.998;10.440;2023-07-16T15:35:58;37.30;33.70
32107;DHT22;18622;51.998;10.440;2023-07-16T15:38:25;37.50;32.70
32107;DHT22;18622;51.998;10.440;2023-07-16T15:40:53;36.50;33.80
32107;DHT22;18622;51.998;10.440;2023-07-16T15:43:21;36.30;34.60
32107;DHT22;18622;51.998;10.440;2023-07-16T15:45:49;36.80;33.80
32107;DHT22;18622;51.998;10.440;2023-07-16T15:48:17;37.00;33.70
32107;DHT22;18622;51.998;10.440;2023-07-16T15:50:44;36.60;33.90
32107;DHT22;18622;51.998;10.440;2023-07-16T15:53:13;36.80;33.80
32107;DHT22;18622;51.998;10.440;2023-07-16T15:55:40;37.30;33.50
32107;DHT22;18622;51.998;10.440;2023-07-16T15:58:08;36.90;32.90
32107;DHT22;18622;51.998;10.440;2023-07-16T16:00:36;35.60;34.50
32107;DHT22;18622;51.998;10.440;2023-07-16T16:03:03;34.60;34.30
32107;DHT22;18622;51.998;10.440;2023-07-16T16:05:31;34.60;35.10
32107;DHT22;18622;51.998;10.440;2023-07-16T16:08:18;35.30;34.20
32107;DHT22;18622;51.998;10.440;2023-07-16T16:10:48;36.00;33.80
32107;DHT22;18622;51.998;10.440;2023-07-16T16:13:18;36.90;33.70
32107;DHT22;18622;51.998;10.440;2023-07-16T16:15:46;37.50;33.60
32107;DHT22;18622;51.998;10.440;2023-07-16T16:18:13;37.70;32.60
32107;DHT22;18622;51.998;10.440;2023-07-16T16:20:42;37.30;33.50
32107;DHT22;18622;51.998;10.440;2023-07-16T16:23:11;37.20;33.30
32107;DHT22;18622;51.998;10.440;2023-07-16T16:25:39;36.60;33.70
32107;DHT22;18622;51.998;10.440;2023-07-16T16:28:07;35.70;34.50
32107;DHT22;18622;51.998;10.440;2023-07-16T16:30:37;35.10;35.50
32107;DHT22;18622;51.998;10.440;2023-07-16T16:33:06;35.20;34.50
32107;DHT22;18622;51.998;10.440;2023-07-16T16:35:39;35.80;33.70
32107;DHT22;18622;51.998;10.440;2023-07-16T16:38:07;35.70;34.50
32107;DHT22;18622;51.998;10.440;2023-07-16T16:40:35;35.70;34.30
32107;DHT22;18622;51.998;10.440;2023-07-16T16:43:04;35.90;34.80
32107;DHT22;18622;51.998;10.440;2023-07-16T16:45:32;36.40;34.50
32107;DHT22;18622;51.998;10.440;2023-07-16T16:48:04;36.60;34.40
32107;DHT22;18622;51.998;10.440;2023-07-16T16:50:32;37.10;34.70
32107;DHT22;18622;51.998;10.440;2023-07-16T16:53:00;37.60;34.40
32107;DHT22;18622;51.998;10.440;2023-07-16T16:55:28;38.20;33.60
32107;DHT22;18622;51.998;10.440;2023-07-16T16:57:55;38.20;33.60
32107;DHT22;18622;51.998;10.440;2023-07-16T17:00:23;38.30;33.80
32107;DHT22;18622;51.998;10.440;2023-07-16T17:02:50;38.60;34.00
32107;DHT22;18622;51.998;10.440;2023-07-16T17:05:19;39.10;33.90
32107;DHT22;18622;51.998;10.440;2023-07-16T17:07:47;39.50;33.70
32107;DHT22;18622;51.998;10.440;2023-07-16T17:10:14;39.90;33.10
32107;DHT22;18622;51.998;10.440;2023-07-16T17:12:42;40.30;33.00
32107;DHT22;18622;51.998;10.440;2023-07-16T17:15:10;39.70;31.50
32107;DHT22;18622;51.998;10.440;2023-07-16T17:17:37;38.30;32.40
32107;DHT22;18622;51.998;10.440;2023-07-16T17:20:06;36.80;33.30
32107;DHT22;18622;51.998;10.440;2023-07-16T17:22:40;35.80;34.70
32107;DHT22;18622;51.998;10.440;2023-07-16T17:25:08;35.20;34.80
32107;DHT22;18622;51.998;10.440;2023-07-16T17:27:36;34.70;35.10
32107;DHT22;18622;51.998;10.440;2023-07-16T17:30:10;33.80;35.20
32107;DHT22;18622;51.998;10.440;2023-07-16T17:32:35;33.00;36.00
32107;DHT22;18622;51.998;10.440;2023-07-16T17:35:02;32.30;36.80
32107;DHT22;18622;51.998;10.440;2023-07-16T17:37:30;31.90;37.80
32107;DHT22;18622;51.998;10.440;2023-07-16T17:39:59;31.60;38.00
32107;DHT22;18622;51.998;10.440;2023-07-16T17:42:26;31.20;38.50
32107;DHT22;18622;51.998;10.440;2023-07-16T17:44:54;30.90;38.70
32107;DHT22;18622;51.998;10.440;2023-07-16T17:47:22;30.60;39.70
32107;DHT22;18622;51.998;10.440;2023-07-16T17:49:50;30.20;39.60
32107;DHT22;18622;51.998;10.440;2023-07-16T17:52:19;29.80;40.70
32107;DHT22;18622;51.998;10.440;2023-07-16T17:54:47;29.40;40.30
32107;DHT22;18622;51.998;10.440;2023-07-16T17:57:15;29.00;40.60
32107;DHT22;18622;51.998;10.440;2023-07-16T17:59:44;28.60;41.50
32107;DHT22;18622;51.998;10.440;2023-07-16T18:02:12;28.20;41.60
32107;DHT22;18622;51.998;10.440;2023-07-16T18:04:40;27.90;42.30
32107;DHT22;18622;51.998;10.440;2023-07-16T18:07:08;27.60;43.60
32107;DHT22;18622;51.998;10.440;2023-07-16T18:09:35;27.40;43.70
32107;DHT22;18622;51.998;10.440;2023-07-16T18:12:04;27.20;43.90
32107;DHT22;18622;51.998;10.440;2023-07-16T18:14:31;27.00;43.90
32107;DHT22;18622;51.998;10.440;2023-07-16T18:16:59;26.90;45.10
32107;DHT22;18622;51.998;10.440;2023-07-16T18:19:27;26.70;45.20
32107;DHT22;18622;51.998;10.440;2023-07-16T18:21:55;26.60;45.30
32107;DHT22;18622;51.998;10.440;2023-07-16T18:24:22;26.50;46.80
32107;DHT22;18622;51.998;10.440;2023-07-16T18:26:51;26.30;47.70
32107;DHT22;18622;51.998;10.440;2023-07-16T18:29:20;26.10;48.50
32107;DHT22;18622;51.998;10.440;2023-07-16T18:31:48;25.80;49.20
32107;DHT22;18622;51.998;10.440;2023-07-16T18:34:16;25.50;50.00
32107;DHT22;18622;51.998;10.440;2023-07-16T18:36:43;25.30;50.70
32107;DHT22;18622;51.998;10.440;2023-07-16T18:39:11;25.10;51.20
32107;DHT22;18622;51.998;10.440;2023-07-16T18:41:39;24.80;51.80
32107;DHT22;18622;51.998;10.440;2023-07-16T18:44:08;24.60;52.30
32107;DHT22;18622;51.998;10.440;2023-07-16T18:46:35;24.40;53.10
32107;DHT22;18622;51.998;10.440;2023-07-16T18:49:05;24.10;53.90
32107;DHT22;18622;51.998;10.440;2023-07-16T18:51:33;23.90;54.90
32107;DHT22;18622;51.998;10.440;2023-07-16T18:54:01;23.60;55.30
32107;DHT22;18622;51.998;10.440;2023-07-16T18:56:29;23.50;55.90
32107;DHT22;18622;51.998;10.440;2023-07-16T18:58:57;23.20;56.50